Time;durP1;ratioP1;P1;durP2;ratioP2;P2;SDS_P1;SDS_P2;PMS_P1;PMS_P2;Temp;Humidity;BMP_temperature;BMP_pressure;BME280_temperature;BME280_humidity;BME280_pressure;Samples;Min_cycle;Max_cycle;Signal;HPM_P1;HPM_P2
2023/01/02 00:00:27;;;;;;;2.25;0.90;;;13.10;99.90;;;;;;4833787;29;20034;-77
2023/01/02 00:02:52;;;;;;;4.10;1.45;;;13.10;99.90;;;;;;4832578;29;20514;-77
2023/01/02 00:05:18;;;;;;;3.58;1.50;;;13.10;99.90;;;;;;4824227;29;20407;-77
2023/01/02 00:07:44;;;;;;;5.70;2.08;;;13.10;99.90;;;;;;4829667;29;20057;-77
2023/01/02 00:10:09;;;;;;;5.60;1.67;;;13.10;99.90;;;;;;4834452;29;20041;-77
2023/01/02 00:12:35;;;;;;;2.95;1.58;;;13.10;99.90;;;;;;4838308;29;20117;-77
2023/01/02 00:15:01;;;;;;;3.88;1.52;;;13.10;99.90;;;;;;4832961;29;20090;-78
2023/01/02 00:17:27;;;;;;;2.60;1.00;;;13.10;99.90;;;;;;4840198;29;20089;-79
2023/01/02 00:19:53;;;;;;;3.97;1.55;;;13.20;99.90;;;;;;4832160;29;20033;-78
2023/01/02 00:22:19;;;;;;;2.85;1.52;;;13.10;99.90;;;;;;4840132;29;20502;-77
2023/01/02 00:24:44;;;;;;;2.80;1.25;;;13.20;99.90;;;;;;4828915;29;20041;-77
2023/01/02 00:27:10;;;;;;;6.65;1.58;;;13.20;99.90;;;;;;4822343;29;20132;-78
2023/01/02 00:29:36;;;;;;;3.55;2.13;;;13.20;99.90;;;;;;4823948;29;20037;-78
2023/01/02 00:32:01;;;;;;;3.83;1.75;;;13.20;99.90;;;;;;4821909;29;20079;-78
2023/01/02 00:34:27;;;;;;;3.05;1.45;;;13.20;99.90;;;;;;4828286;29;20107;-78
2023/01/02 00:36:53;;;;;;;6.70;1.98;;;13.30;99.90;;;;;;4837620;29;20045;-77
2023/01/02 00:39:18;;;;;;;5.70;1.92;;;13.20;99.90;;;;;;4831263;29;20053;-77
2023/01/02 00:41:44;;;;;;;3.13;1.48;;;13.20;99.90;;;;;;4833937;29;20030;-76
2023/01/02 00:44:10;;;;;;;3.25;1.70;;;13.30;99.90;;;;;;4832209;29;20041;-77
2023/01/02 00:46:35;;;;;;;3.63;1.58;;;13.30;99.90;;;;;;4833589;29;20029;-77
2023/01/02 00:49:01;;;;;;;4.28;2.38;;;13.30;99.90;;;;;;4829590;29;20042;-77
2023/01/02 00:51:27;;;;;;;5.57;1.15;;;13.30;99.90;;;;;;4830731;29;20041;-77
2023/01/02 00:53:53;;;;;;;4.40;1.20;;;13.30;99.90;;;;;;4823181;29;20099;-78
2023/01/02 00:56:18;;;;;;;1.90;1.27;;;13.30;99.90;;;;;;4833183;29;20094;-78
2023/01/02 00:58:44;;;;;;;2.50;1.02;;;13.40;99.90;;;;;;4832964;29;20098;-78
2023/01/02 01:01:10;;;;;;;4.85;2.28;;;13.40;99.90;;;;;;4832718;29;20572;-78
2023/01/02 01:03:35;;;;;;;2.78;1.00;;;13.40;99.90;;;;;;4834202;29;20033;-78
2023/01/02 01:06:09;;;;;;;2.78;1.30;;;13.40;99.90;;;;;;4831492;29;20478;-78
2023/01/02 01:08:37;;;;;;;2.25;1.15;;;13.50;99.90;;;;;;4834309;29;20038;-78
2023/01/02 01:11:14;;;;;;;3.88;1.98;;;13.40;99.90;;;;;;4831732;29;20042;-77
2023/01/02 01:13:41;;;;;;;1.50;0.93;;;13.40;99.90;;;;;;4828213;29;20526;-78
2023/01/02 01:16:11;;;;;;;2.60;1.70;;;13.50;99.90;;;;;;4824147;29;20141;-78
2023/01/02 01:18:38;;;;;;;1.75;1.00;;;13.40;99.90;;;;;;4821093;29;20034;-78
2023/01/02 01:21:10;;;;;;;3.78;1.38;;;13.40;99.90;;;;;;4832338;29;20643;-78
2023/01/02 01:23:36;;;;;;;1.75;1.35;;;13.40;99.90;;;;;;4832879;29;20038;-78
2023/01/02 01:26:08;;;;;;;5.40;1.33;;;13.40;99.90;;;;;;4830373;29;20495;-78
2023/01/02 01:28:35;;;;;;;4.45;1.65;;;13.40;99.90;;;;;;4833352;29;20483;-78
2023/01/02 01:31:10;;;;;;;7.78;1.30;;;13.40;99.90;;;;;;4831347;29;20045;-77
2023/01/02 01:33:37;;;;;;;3.53;1.52;;;13.40;99.90;;;;;;4832738;29;20034;-77
2023/01/02 01:36:23;;;;;;;6.47;1.63;;;13.30;99.90;;;;;;4830056;29;20385;-78
2023/01/02 01:38:50;;;;;;;5.50;1.45;;;13.30;99.90;;;;;;4830578;29;20098;-78
2023/01/02 01:41:20;;;;;;;3.83;1.40;;;13.30;99.90;;;;;;4826264;29;20034;-78
2023/01/02 01:43:51;;;;;;;3.75;1.35;;;13.30;99.90;;;;;;4817476;29;20066;-77
2023/01/02 01:46:22;;;;;;;4.45;1.80;;;13.20;99.90;;;;;;4829573;29;20076;-78
2023/01/02 01:49:25;;;;;;;3.25;1.73;;;13.20;99.90;;;;;;4829015;29;20061;-78
2023/01/02 01:52:06;;;;;;;6.15;1.42;;;13.10;99.90;;;;;;4834190;29;20121;-77
2023/01/02 01:54:37;;;;;;;5.13;1.45;;;13.10;99.90;;;;;;4829963;29;20040;-77
2023/01/02 01:57:11;;;;;;;;;;;13.10;99.90;;;;;;4831804;29;20478;-77
2023/01/02 01:59:38;;;;;;;7.80;1.65;;;13.10;99.90;;;;;;4830429;29;19924;-78
2023/01/02 02:02:04;;;;;;;3.50;1.75;;;13.10;99.90;;;;;;4816515;29;20041;-78
2023/01/02 02:04:30;;;;;;;4.45;2.03;;;13.10;99.90;;;;;;4829876;29;20110;-77
2023/01/02 02:06:56;;;;;;;2.40;1.27;;;13.00;99.90;;;;;;4820093;29;20083;-77
2023/01/02 02:09:42;;;;;;;2.47;1.42;;;13.00;99.90;;;;;;4826349;29;20046;-77
2023/01/02 02:12:08;;;;;;;2.45;1.45;;;12.90;99.90;;;;;;4834809;29;20038;-77
2023/01/02 02:14:34;;;;;;;4.32;1.40;;;12.90;99.90;;;;;;4830664;29;20619;-76
2023/01/02 02:17:41;;;;;;;2.67;1.20;;;12.80;99.90;;;;;;4827928;29;20101;-77
2023/01/02 02:20:26;;;;;;;3.20;1.38;;;12.80;99.90;;;;;;4828692;29;20057;-77
2023/01/02 02:23:16;;;;;;;3.45;1.50;;;12.80;99.90;;;;;;4835737;29;20049;-77
2023/01/02 02:26:30;;;;;;;3.07;2.07;;;12.60;99.90;;;;;;4825371;29;20422;-77
2023/01/02 02:29:55;;;;;;;3.92;1.75;;;12.50;99.90;;;;;;4822038;29;20378;-77
2023/01/02 02:32:50;;;;;;;4.28;1.25;;;12.50;99.90;;;;;;4787990;29;20078;-77
2023/01/02 02:35:51;;;;;;;4.28;1.65;;;12.50;99.90;;;;;;4776507;29;20111;-77
2023/01/02 02:38:48;;;;;;;3.35;1.33;;;12.30;99.90;;;;;;4819702;29;20100;-77
2023/01/02 02:41:29;;;;;;;1.63;1.27;;;12.20;99.90;;;;;;4831939;29;20861;-77
2023/01/02 02:44:27;;;;;;;6.47;1.70;;;12.00;99.90;;;;;;4841390;29;20375;-77
2023/01/02 02:47:08;;;;;;;4.90;1.40;;;12.10;99.90;;;;;;4840656;29;20133;-77
2023/01/02 02:50:05;;;;;;;3.90;1.10;;;12.10;99.90;;;;;;4832918;29;20057;-77
2023/01/02 02:52:46;;;;;;;3.92;1.85;;;12.20;99.90;;;;;;4832095;29;20040;-77
2023/01/02 02:55:21;;;;;;;3.15;1.02;;;12.30;99.90;;;;;;4830781;29;20030;-77
2023/01/02 02:57:49;;;;;;;8.95;1.27;;;12.40;99.90;;;;;;4837148;29;20533;-77
2023/01/02 03:00:18;;;;;;;6.45;1.80;;;12.60;99.90;;;;;;4831428;29;20042;-77
2023/01/02 03:02:45;;;;;;;4.13;1.48;;;12.70;99.90;;;;;;4824592;29;20038;-77
2023/01/02 03:05:36;;;;;;;3.20;1.52;;;12.80;99.90;;;;;;4830505;29;20030;-77
2023/01/02 03:08:25;;;;;;;6.22;2.17;;;12.80;99.90;;;;;;4836617;29;20105;-77
2023/01/02 03:10:55;;;;;;;2.78;1.50;;;12.80;99.90;;;;;;4832254;29;20098;-77
2023/01/02 03:13:39;;;;;;;4.15;1.70;;;12.70;99.90;;;;;;4826474;29;20402;-78
2023/01/02 03:16:37;;;;;;;2.78;0.90;;;12.70;99.90;;;;;;4834963;29;20394;-78
2023/01/02 03:19:48;;;;;;;3.40;0.90;;;12.60;99.90;;;;;;4832632;29;20048;-78
2023/01/02 03:22:20;;;;;;;6.80;1.15;;;12.50;99.90;;;;;;4810879;29;20038;-78
2023/01/02 03:24:51;;;;;;;3.75;1.60;;;12.50;99.90;;;;;;4808881;29;20050;-78
2023/01/02 03:27:21;;;;;;;3.22;1.10;;;12.60;99.90;;;;;;4808674;29;20034;-78
2023/01/02 03:30:02;;;;;;;3.90;1.45;;;12.60;99.90;;;;;;4828163;29;20043;-78
2023/01/02 03:32:42;;;;;;;2.50;1.30;;;12.60;99.90;;;;;;4823330;29;20093;-77
2023/01/02 03:35:14;;;;;;;3.35;1.40;;;12.70;99.90;;;;;;4832492;29;20038;-78
2023/01/02 03:37:48;;;;;;;4.10;1.80;;;12.80;99.90;;;;;;4840534;29;20640;-78
2023/01/02 03:40:21;;;;;;;3.22;1.05;;;12.90;99.90;;;;;;4833541;29;20067;-78
2023/01/02 03:42:58;;;;;;;11.45;2.00;;;13.00;99.90;;;;;;4839522;29;20147;-78
2023/01/02 03:45:32;;;;;;;3.38;1.10;;;13.00;99.90;;;;;;4824269;29;20093;-78
2023/01/02 03:48:28;;;;;;;3.50;1.55;;;13.00;99.90;;;;;;4824239;29;20198;-78
2023/01/02 03:50:59;;;;;;;6.88;1.10;;;13.00;99.90;;;;;;4834830;29;20525;-78
2023/01/02 03:53:26;;;;;;;7.32;1.80;;;13.00;99.90;;;;;;4839242;29;20053;-78
2023/01/02 03:56:26;;;;;;;2.05;1.05;;;12.90;99.90;;;;;;4825503;29;20539;-78
2023/01/02 03:58:59;;;;;;;2.75;1.55;;;12.90;99.90;;;;;;4830311;29;20514;-78
2023/01/02 04:01:40;;;;;;;8.48;1.45;;;12.90;99.90;;;;;;4834685;29;20681;-78
2023/01/02 04:04:15;;;;;;;3.95;1.60;;;12.90;99.90;;;;;;4829615;29;20045;-78
2023/01/02 04:06:48;;;;;;;8.77;1.38;;;12.80;99.90;;;;;;4827848;29;20039;-78
2023/01/02 04:09:25;;;;;;;2.65;1.67;;;12.90;99.90;;;;;;4829613;29;20060;-78
2023/01/02 04:12:02;;;;;;;1.42;0.95;;;12.90;99.90;;;;;;4837723;29;20065;-77
2023/01/02 04:14:37;;;;;;;2.15;0.95;;;13.00;99.90;;;;;;4829010;29;20040;-78
2023/01/02 04:17:07;;;;;;;6.15;1.45;;;13.00;99.90;;;;;;4838996;29;20129;-78
2023/01/02 04:19:58;;;;;;;2.40;1.33;;;13.00;99.90;;;;;;4818101;29;20031;-78
2023/01/02 04:22:30;;;;;;;3.28;1.25;;;12.90;99.90;;;;;;4805120;29;20694;-78
2023/01/02 04:25:08;;;;;;;7.97;1.25;;;12.90;99.90;;;;;;4829910;29;20054;-78
2023/01/02 04:27:52;;;;;;;5.30;1.67;;;12.90;99.90;;;;;;4840548;29;20089;-78
2023/01/02 04:30:18;;;;;;;3.35;1.30;;;12.90;99.90;;;;;;4830004;29;20109;-78
2023/01/02 04:32:45;;;;;;;1.77;1.10;;;12.90;99.90;;;;;;4821558;29;20191;-78
2023/01/02 04:35:17;;;;;;;2.33;1.40;;;12.90;99.90;;;;;;4833276;29;20074;-78
2023/01/02 04:37:44;;;;;;;4.00;1.63;;;12.90;99.90;;;;;;4833022;29;20447;-78
2023/01/02 04:40:29;;;;;;;4.78;1.20;;;12.90;99.90;;;;;;4810083;29;20037;-78
2023/01/02 04:42:55;;;;;;;2.20;1.27;;;12.90;99.90;;;;;;4813925;29;20699;-78
2023/01/02 04:45:22;;;;;;;3.55;1.48;;;12.90;99.90;;;;;;4814209;29;20026;-78
2023/01/02 04:47:49;;;;;;;4.45;1.90;;;12.90;99.90;;;;;;4816686;29;20399;-78
2023/01/02 04:50:15;;;;;;;2.20;1.00;;;12.90;99.90;;;;;;4832408;29;20037;-78
2023/01/02 04:52:41;;;;;;;5.85;1.38;;;12.80;99.90;;;;;;4839561;29;20136;-78
2023/01/02 04:55:09;;;;;;;2.88;1.38;;;12.80;99.90;;;;;;4832314;29;20105;-78
2023/01/02 04:57:36;;;;;;;8.10;1.83;;;12.80;99.90;;;;;;4840410;29;20042;-78
2023/01/02 05:00:04;;;;;;;2.00;1.05;;;12.70;99.90;;;;;;4831481;29;20030;-78
2023/01/02 05:02:37;;;;;;;3.42;1.13;;;12.70;99.90;;;;;;4825078;29;20510;-78
2023/01/02 05:05:06;;;;;;;1.30;0.85;;;12.70;99.90;;;;;;4831332;29;20049;-78
2023/01/02 05:07:36;;;;;;;3.25;0.95;;;12.60;99.90;;;;;;4839503;29;20034;-78
2023/01/02 05:10:03;;;;;;;4.55;1.65;;;12.60;99.90;;;;;;4831504;29;20039;-78
2023/01/02 05:12:32;;;;;;;3.20;1.63;;;12.60;99.90;;;;;;4840058;29;20119;-78
2023/01/02 05:14:58;;;;;;;2.45;0.80;;;12.50;99.90;;;;;;4830452;29;20038;-78
2023/01/02 05:17:23;;;;;;;2.17;1.17;;;12.60;99.90;;;;;;4839401;29;20037;-78
2023/01/02 05:19:49;;;;;;;1.85;0.90;;;12.50;99.90;;;;;;4830493;29;20077;-78
2023/01/02 05:24:59;;;;;;;2.35;1.10;;;12.50;99.90;;;;;;4834203;29;20038;-78
2023/01/02 05:27:24;;;;;;;5.53;1.25;;;12.50;99.90;;;;;;4788067;29;20484;-78
2023/01/02 05:29:50;;;;;;;2.15;1.00;;;12.40;99.90;;;;;;4833557;29;20373;-81
2023/01/02 05:32:15;;;;;;;12.95;1.60;;;12.40;99.90;;;;;;4821339;29;20034;-80
2023/01/02 05:34:41;;;;;;;1.90;1.05;;;12.40;99.90;;;;;;4822736;29;20133;-79
2023/01/02 05:37:07;;;;;;;7.28;1.88;;;12.40;99.90;;;;;;4822088;29;20041;-79
2023/01/02 05:39:32;;;;;;;3.08;1.20;;;12.40;99.90;;;;;;4821528;29;20095;-79
2023/01/02 05:41:58;;;;;;;2.40;1.02;;;12.40;99.90;;;;;;4820455;29;20094;-79
2023/01/02 05:44:24;;;;;;;4.13;1.40;;;12.40;99.90;;;;;;4821077;29;20070;-80
2023/01/02 05:46:49;;;;;;;5.68;1.40;;;12.40;99.90;;;;;;4822452;29;20117;-79
2023/01/02 05:49:15;;;;;;;5.72;1.30;;;12.40;99.90;;;;;;4806753;29;20045;-79
2023/01/02 05:51:41;;;;;;;2.50;1.25;;;12.40;99.90;;;;;;4822295;29;20041;-79
2023/01/02 05:54:07;;;;;;;3.90;1.30;;;12.40;99.90;;;;;;4821259;29;20107;-79
2023/01/02 05:56:33;;;;;;;3.25;1.15;;;12.50;99.90;;;;;;4821959;29;20518;-79
2023/01/02 05:58:59;;;;;;;2.90;1.27;;;12.40;99.90;;;;;;4814817;29;20046;-77
2023/01/02 06:01:28;;;;;;;1.90;1.10;;;12.50;99.90;;;;;;4812314;29;20033;-75
2023/01/02 06:03:56;;;;;;;2.25;1.10;;;12.50;99.90;;;;;;4814724;29;20026;-74
2023/01/02 06:06:28;;;;;;;5.65;1.30;;;12.50;99.90;;;;;;4824465;29;20027;-76
2023/01/02 06:08:53;;;;;;;7.53;1.27;;;12.60;99.90;;;;;;4820822;29;20042;-76
2023/01/02 06:11:19;;;;;;;2.97;1.35;;;12.60;99.90;;;;;;4821519;29;20057;-77
2023/01/02 06:13:45;;;;;;;1.00;0.77;;;12.50;99.90;;;;;;4821440;29;20050;-76
2023/01/02 06:16:11;;;;;;;1.83;1.05;;;12.50;99.90;;;;;;4816116;29;20110;-76
2023/01/02 06:18:38;;;;;;;8.63;1.00;;;12.40;99.90;;;;;;4819754;29;20046;-76
2023/01/02 06:21:08;;;;;;;5.40;1.05;;;12.40;99.90;;;;;;4820604;29;20034;-75
2023/01/02 06:23:34;;;;;;;2.15;0.75;;;12.30;99.90;;;;;;4821245;29;20030;-75
2023/01/02 06:26:05;;;;;;;8.60;1.33;;;12.20;99.90;;;;;;4820553;29;20049;-75
2023/01/02 06:28:31;;;;;;;2.17;1.02;;;12.20;99.90;;;;;;4821326;29;20038;-75
2023/01/02 06:31:03;;;;;;;6.55;2.10;;;12.30;99.90;;;;;;4820269;29;20065;-75
2023/01/02 06:33:29;;;;;;;6.80;1.30;;;12.20;99.90;;;;;;4820354;29;20042;-75
2023/01/02 06:36:06;;;;;;;1.98;0.98;;;12.30;99.90;;;;;;4820577;29;20038;-75
2023/01/02 06:38:33;;;;;;;4.07;1.20;;;12.30;99.90;;;;;;4821343;29;20066;-78
2023/01/02 06:41:00;;;;;;;3.33;1.50;;;12.30;99.90;;;;;;4817354;29;20535;-79
2023/01/02 06:43:28;;;;;;;3.05;1.50;;;12.40;99.90;;;;;;4814319;29;20054;-77
2023/01/02 06:46:03;;;;;;;6.88;2.05;;;12.50;99.90;;;;;;4817289;29;20038;-78
2023/01/02 06:48:31;;;;;;;5.18;1.42;;;12.50;99.90;;;;;;4821785;29;20129;-73
2023/01/02 06:50:58;;;;;;;4.05;1.20;;;12.40;99.90;;;;;;4822353;29;20042;-80
2023/01/02 06:53:25;;;;;;;3.72;2.10;;;12.40;99.90;;;;;;4819972;29;20030;-75
2023/01/02 06:55:51;;;;;;;2.67;1.00;;;12.30;99.90;;;;;;4820543;29;20078;-73
2023/01/02 06:58:18;;;;;;;3.33;1.20;;;12.30;99.90;;;;;;4819541;29;20047;-76
2023/01/02 07:00:43;;;;;;;4.88;1.13;;;12.40;99.90;;;;;;4819292;29;20480;-73
2023/01/02 07:03:09;;;;;;;6.72;1.67;;;12.40;99.90;;;;;;4820975;29;20110;-73
2023/01/02 07:05:35;;;;;;;4.55;1.40;;;12.40;99.90;;;;;;4816184;29;20373;-77
2023/01/02 07:08:00;;;;;;;3.95;1.67;;;12.40;99.90;;;;;;4818742;29;20487;-76
2023/01/02 07:10:26;;;;;;;3.15;1.10;;;12.40;99.90;;;;;;4820233;29;20030;-76
2023/01/02 07:12:52;;;;;;;3.58;1.63;;;12.30;99.90;;;;;;4820009;29;20101;-76
2023/01/02 07:15:17;;;;;;;4.78;1.42;;;12.30;99.90;;;;;;4836881;23;20028;-85
2023/01/02 07:17:43;;;;;;;4.18;1.35;;;12.30;99.90;;;;;;4842786;29;20037;-85
2023/01/02 07:20:10;;;;;;;4.38;1.48;;;12.20;99.90;;;;;;4837379;29;20089;-85
2023/01/02 07:22:35;;;;;;;4.47;1.48;;;12.20;99.90;;;;;;4839075;29;20109;-83
2023/01/02 07:25:01;;;;;;;8.02;1.38;;;12.30;99.90;;;;;;4845504;29;20121;-86
2023/01/02 07:27:29;;;;;;;4.35;1.65;;;12.20;99.90;;;;;;4840751;29;20030;-86
2023/01/02 07:29:55;;;;;;;3.92;1.27;;;12.30;99.90;;;;;;4858543;29;20037;-86
2023/01/02 07:32:21;;;;;;;1.48;1.20;;;12.30;99.90;;;;;;4870907;29;20474;-85
2023/01/02 07:34:47;;;;;;;2.83;1.02;;;12.30;99.90;;;;;;4844105;29;20457;-86
2023/01/02 07:37:13;;;;;;;4.57;1.33;;;12.40;99.90;;;;;;4842856;29;20037;-88
2023/01/02 07:39:38;;;;;;;5.65;1.23;;;12.40;99.90;;;;;;4842861;29;20041;-82
2023/01/02 07:42:04;;;;;;;3.60;1.60;;;12.40;99.90;;;;;;4842543;29;20765;-81
2023/01/02 07:44:30;;;;;;;2.75;1.42;;;12.50;99.90;;;;;;4837350;29;20467;-78
2023/01/02 07:46:56;;;;;;;3.90;0.95;;;12.60;99.90;;;;;;4842085;29;20052;-82
2023/01/02 07:49:21;;;;;;;7.07;1.38;;;12.60;99.90;;;;;;4841783;29;20110;-80
2023/01/02 07:51:47;;;;;;;2.80;1.33;;;12.80;99.90;;;;;;4848001;29;20038;-81
2023/01/02 07:54:13;;;;;;;4.97;1.20;;;13.00;99.90;;;;;;4841409;29;20044;-79
2023/01/02 07:56:38;;;;;;;5.80;1.60;;;13.20;99.90;;;;;;4850324;29;20041;-81
2023/01/02 07:59:04;;;;;;;6.38;1.13;;;13.30;99.90;;;;;;4845561;29;20101;-81
2023/01/02 08:01:29;;;;;;;4.55;1.35;;;13.40;99.90;;;;;;4841831;29;20041;-82
2023/01/02 08:03:55;;;;;;;2.33;1.38;;;13.50;99.90;;;;;;4844326;29;20045;-81
2023/01/02 08:06:21;;;;;;;2.83;1.10;;;13.50;99.90;;;;;;4855223;29;20034;-82
2023/01/02 08:08:47;;;;;;;4.13;1.73;;;13.50;99.90;;;;;;4847956;29;20616;-83
2023/01/02 08:11:17;;;;;;;3.42;1.52;;;13.50;99.90;;;;;;4843632;29;20033;-81
2023/01/02 08:13:43;;;;;;;5.50;1.83;;;13.40;99.90;;;;;;4858875;29;20038;-82
2023/01/02 08:16:20;;;;;;;4.43;1.05;;;13.40;99.90;;;;;;4852291;29;20105;-84
2023/01/02 08:18:50;;;;;;;3.90;1.23;;;13.40;99.90;;;;;;4870064;29;20045;-83
2023/01/02 08:21:15;;;;;;;7.35;1.55;;;13.40;99.90;;;;;;4834496;29;20030;-85
2023/01/02 08:23:41;;;;;;;3.28;1.20;;;13.40;99.90;;;;;;4841440;29;20030;-74
2023/01/02 08:26:09;;;;;;;8.80;1.25;;;13.40;99.90;;;;;;4841702;29;20102;-82
2023/01/02 08:28:36;;;;;;;4.78;1.10;;;13.40;99.90;;;;;;4854509;29;20054;-81
2023/01/02 08:31:16;;;;;;;3.20;1.02;;;13.30;99.90;;;;;;4854393;29;20044;-81
2023/01/02 08:33:43;;;;;;;4.10;1.60;;;13.40;99.90;;;;;;4859362;29;20041;-86
2023/01/02 08:36:09;;;;;;;3.78;2.35;;;13.50;99.90;;;;;;4841126;29;20506;-73
2023/01/02 08:43:26;;;;;;;6.60;1.35;;;13.80;99.90;;;;;;4834021;29;20628;-83
2023/01/02 08:45:54;;;;;;;2.88;1.45;;;13.90;99.90;;;;;;4841316;29;20494;-85
2023/01/02 08:48:20;;;;;;;3.13;1.02;;;14.00;99.90;;;;;;4854571;29;20045;-82
2023/01/02 08:50:45;;;;;;;2.47;1.23;;;14.10;99.90;;;;;;4840086;29;20129;-77
2023/01/02 08:53:11;;;;;;;6.50;1.55;;;14.10;99.90;;;;;;4854740;29;20120;-78
2023/01/02 08:55:37;;;;;;;3.72;1.38;;;14.10;99.90;;;;;;4840333;29;20497;-77
2023/01/02 08:58:02;;;;;;;5.72;1.42;;;14.00;99.90;;;;;;4840531;29;20038;-81
2023/01/02 09:00:28;;;;;;;5.00;1.85;;;14.00;99.90;;;;;;4841097;29;20057;-78
2023/01/02 09:02:54;;;;;;;3.05;1.52;;;13.90;99.90;;;;;;4840827;29;20057;-88
2023/01/02 09:05:20;;;;;;;4.22;1.30;;;13.90;99.90;;;;;;4839713;29;20045;-75
2023/01/02 09:07:45;;;;;;;3.47;1.25;;;13.90;99.90;;;;;;4838786;29;20046;-75
2023/01/02 09:10:11;;;;;;;1.45;0.93;;;14.00;99.90;;;;;;4839776;29;20086;-80
2023/01/02 09:12:37;;;;;;;6.38;0.82;;;14.10;99.90;;;;;;4854500;29;20034;-77
2023/01/02 09:15:04;;;;;;;3.88;1.45;;;14.20;99.90;;;;;;4853845;29;20038;-81
2023/01/02 09:17:30;;;;;;;5.22;1.20;;;14.20;99.90;;;;;;4854083;29;20034;-78
2023/01/02 09:19:55;;;;;;;5.50;1.42;;;14.30;99.90;;;;;;4840122;29;20082;-75
2023/01/02 09:22:21;;;;;;;3.13;1.00;;;14.30;99.90;;;;;;4840368;29;20069;-83
2023/01/02 09:24:47;;;;;;;4.30;1.50;;;14.40;99.90;;;;;;4839529;29;20142;-75
2023/01/02 09:27:13;;;;;;;4.55;1.13;;;14.40;99.90;;;;;;4854317;29;20026;-78
2023/01/02 09:29:38;;;;;;;2.72;0.95;;;14.40;99.90;;;;;;4839522;29;20033;-75
2023/01/02 09:32:04;;;;;;;3.67;1.23;;;14.60;99.90;;;;;;4854170;29;20038;-80
2023/01/02 09:34:30;;;;;;;2.22;0.90;;;14.70;99.90;;;;;;4836329;29;20034;-82
2023/01/02 09:36:55;;;;;;;2.15;1.08;;;14.80;99.90;;;;;;4839534;29;20033;-81
2023/01/02 09:39:21;;;;;;;1.45;0.70;;;14.90;99.90;;;;;;4850095;29;20407;-80
2023/01/02 09:41:53;;;;;;;2.63;1.20;;;14.90;99.90;;;;;;4853852;29;20037;-81
2023/01/02 09:44:50;;;;;;;1.95;0.68;;;15.00;99.50;;;;;;4853294;29;20034;-83
2023/01/02 09:47:31;;;;;;;6.90;1.30;;;15.00;99.70;;;;;;4839711;29;20057;-84
2023/01/02 09:50:04;;;;;;;3.73;1.20;;;15.10;99.30;;;;;;4839854;29;20026;-81
2023/01/02 09:52:40;;;;;;;3.80;0.52;;;15.30;99.30;;;;;;4839058;29;20037;-81
2023/01/02 09:55:28;;;;;;;5.47;1.10;;;15.40;98.80;;;;;;4848847;29;20478;-77
2023/01/02 09:58:42;;;;;;;7.20;1.67;;;15.60;98.50;;;;;;4839202;29;20430;-77
2023/01/02 10:01:36;;;;;;;3.45;0.82;;;16.10;97.60;;;;;;4836680;29;20546;-79
2023/01/02 10:04:28;;;;;;;3.30;1.02;;;16.30;97.20;;;;;;4839560;29;20515;-78
2023/01/02 10:07:37;;;;;;;4.45;1.42;;;16.20;97.10;;;;;;4839150;29;20041;-76
2023/01/02 10:10:39;;;;;;;8.95;1.60;;;16.20;97.00;;;;;;4839173;29;20077;-75
2023/01/02 10:13:43;;;;;;;2.17;1.20;;;16.40;97.20;;;;;;4815381;29;20079;-77
2023/01/02 10:16:18;;;;;;;3.05;0.93;;;17.20;97.00;;;;;;4851065;29;20132;-77
2023/01/02 10:18:50;;;;;;;3.55;1.45;;;18.30;95.10;;;;;;4855714;29;20090;-77
2023/01/02 10:21:28;;;;;;;3.78;1.30;;;18.80;93.60;;;;;;4831254;29;20120;-81
2023/01/02 10:24:37;;;;;;;4.28;1.20;;;18.70;93.20;;;;;;4838623;29;20053;-71
2023/01/02 10:27:05;;;;;;;6.25;1.15;;;18.70;93.00;;;;;;4838624;29;20042;-77
2023/01/02 10:29:42;;;;;;;3.30;1.10;;;18.00;93.70;;;;;;4839629;29;20487;-76
2023/01/02 10:32:16;;;;;;;2.78;0.88;;;17.30;94.50;;;;;;4853314;29;20041;-73
2023/01/02 10:35:05;;;;;;;7.07;0.98;;;17.20;94.90;;;;;;4836373;29;20029;-79
2023/01/02 10:37:32;;;;;;;2.28;1.10;;;17.20;95.10;;;;;;4846413;29;20054;-79
2023/01/02 10:39:58;;;;;;;3.15;0.73;;;17.60;94.50;;;;;;4849689;29;20027;-78
2023/01/02 10:42:24;;;;;;;6.20;1.65;;;18.00;94.60;;;;;;4839156;29;20061;-80
2023/01/02 10:44:51;;;;;;;9.02;1.88;;;17.50;95.20;;;;;;4852696;29;20033;-80
2023/01/02 10:47:33;;;;;;;2.53;1.10;;;18.00;94.70;;;;;;4852841;29;20045;-76
2023/01/02 10:49:59;;;;;;;1.50;0.80;;;18.70;93.30;;;;;;4851442;29;20049;-78
2023/01/02 10:52:52;;;;;;;6.68;1.27;;;18.40;93.40;;;;;;4853347;29;20420;-82
2023/01/02 10:55:40;;;;;;;1.85;0.80;;;18.00;94.30;;;;;;4834853;29;20106;-82
2023/01/02 10:58:28;;;;;;;7.05;0.90;;;17.30;95.20;;;;;;4852131;29;20109;-78
2023/01/02 11:01:17;;;;;;;2.25;1.02;;;16.90;95.60;;;;;;4837166;29;20042;-78
2023/01/02 11:03:45;;;;;;;4.18;1.63;;;16.90;96.10;;;;;;4851542;29;20046;-76
2023/01/02 11:06:24;;;;;;;2.80;0.65;;;16.90;96.70;;;;;;4840155;29;20126;-74
2023/01/02 11:09:03;;;;;;;2.72;1.33;;;16.90;97.60;;;;;;4842464;29;20057;-78
2023/01/02 11:11:31;;;;;;;1.80;0.73;;;16.80;97.80;;;;;;4856033;29;20406;-73
2023/01/02 11:14:07;;;;;;;2.72;1.25;;;16.80;98.50;;;;;;4855076;29;20038;-78
2023/01/02 11:16:38;;;;;;;3.33;1.23;;;16.70;98.60;;;;;;4856155;29;20033;-78
2023/01/02 11:19:06;;;;;;;2.33;0.68;;;16.40;99.90;;;;;;4852527;29;20038;-75
2023/01/02 11:21:37;;;;;;;4.82;1.00;;;16.10;99.90;;;;;;4846636;29;20102;-72
2023/01/02 11:24:15;;;;;;;0.90;0.70;;;15.90;99.90;;;;;;4858878;29;20034;-79
2023/01/02 11:26:43;;;;;;;4.07;1.23;;;15.70;99.90;;;;;;4822117;29;20448;-76
2023/01/02 11:29:21;;;;;;;1.10;0.63;;;15.70;99.90;;;;;;4853633;29;20187;-77
2023/01/02 11:31:50;;;;;;;0.95;0.60;;;15.70;99.90;;;;;;4855186;29;20121;-79
2023/01/02 11:34:37;;;;;;;2.63;0.80;;;15.70;99.90;;;;;;4852093;29;20046;-82
2023/01/02 11:37:15;;;;;;;5.28;1.27;;;15.70;99.90;;;;;;4854635;29;20036;-78
2023/01/02 11:39:41;;;;;;;4.75;0.60;;;15.60;99.90;;;;;;4844987;29;20088;-77
2023/01/02 11:45:17;;;;;;;1.38;0.80;;;15.70;99.90;;;;;;4829554;29;20045;-80
2023/01/02 11:48:13;;;;;;;3.22;1.55;;;15.50;99.90;;;;;;4829247;29;20786;-83
2023/01/02 11:50:42;;;;;;;9.80;1.30;;;15.40;99.90;;;;;;4830457;29;20090;-82
2023/01/02 11:53:19;;;;;;;2.85;0.95;;;15.50;99.90;;;;;;4856038;29;20513;-75
2023/01/02 11:56:08;;;;;;;4.20;1.00;;;15.40;99.90;;;;;;4854562;29;20422;-83
2023/01/02 11:59:02;;;;;;;6.35;0.98;;;15.40;99.90;;;;;;4836160;29;20038;-80
2023/01/02 12:02:03;;;;;;;3.10;1.23;;;15.50;99.90;;;;;;4838135;29;20102;-74
2023/01/02 12:04:30;;;;;;;2.85;1.00;;;15.50;99.90;;;;;;4837701;29;20042;-77
2023/01/02 12:07:04;;;;;;;1.33;0.70;;;15.40;99.90;;;;;;4855560;29;20098;-81
2023/01/02 12:09:52;;;;;;;1.48;0.70;;;15.40;99.90;;;;;;4840935;29;20038;-81
2023/01/02 12:12:42;;;;;;;2.80;1.02;;;15.40;99.90;;;;;;4855656;29;20094;-82
2023/01/02 12:15:24;;;;;;;5.72;1.65;;;15.40;99.90;;;;;;4840022;29;20053;-77
2023/01/02 12:18:06;;;;;;;2.83;1.38;;;15.40;99.90;;;;;;4855088;29;20038;-80
2023/01/02 12:21:16;;;;;;;5.10;0.80;;;15.30;99.90;;;;;;4854147;29;20078;-79
2023/01/02 12:24:17;;;;;;;2.55;0.95;;;15.20;99.90;;;;;;4829329;29;20469;-79
2023/01/02 12:27:12;;;;;;;6.82;1.27;;;15.00;99.90;;;;;;4831294;29;20578;-80
2023/01/02 12:29:57;;;;;;;2.25;1.00;;;14.90;99.90;;;;;;4838543;29;20107;-80
2023/01/02 12:32:31;;;;;;;1.67;0.70;;;14.90;99.90;;;;;;4837839;29;20461;-76
2023/01/02 12:35:26;;;;;;;2.88;1.17;;;14.70;99.90;;;;;;4840428;29;20042;-84
2023/01/02 12:37:55;;;;;;;2.33;0.93;;;14.60;99.90;;;;;;4840692;29;20034;-77
2023/01/02 12:41:07;;;;;;;2.42;1.00;;;14.40;99.90;;;;;;4854610;29;20044;-75
2023/01/02 12:43:39;;;;;;;4.20;0.98;;;14.20;99.90;;;;;;4848079;29;20065;-77
2023/01/02 12:46:29;;;;;;;2.63;1.00;;;14.10;99.90;;;;;;4840221;29;20045;-76
2023/01/02 12:49:07;;;;;;;3.80;0.70;;;14.20;99.90;;;;;;4853201;29;20053;-76
2023/01/02 12:51:57;;;;;;;2.38;0.75;;;14.10;99.90;;;;;;4840310;29;20037;-75
2023/01/02 12:54:54;;;;;;;2.83;1.00;;;14.10;99.90;;;;;;4836660;29;20036;-76
2023/01/02 12:57:40;;;;;;;2.90;1.23;;;14.00;99.90;;;;;;4833424;29;20125;-75
2023/01/02 13:00:48;;;;;;;3.30;1.58;;;14.10;99.90;;;;;;4854060;29;20038;-76
2023/01/02 13:03:47;;;;;;;1.40;0.55;;;14.00;99.90;;;;;;4840493;29;20037;-75
2023/01/02 13:06:18;;;;;;;6.70;1.10;;;14.00;99.90;;;;;;4839724;29;20041;-76
2023/01/02 13:09:05;;;;;;;4.40;1.25;;;14.00;99.90;;;;;;4854298;29;20518;-75
2023/01/02 13:11:48;;;;;;;3.85;1.40;;;14.00;99.90;;;;;;4839655;29;20049;-76
2023/01/02 13:14:24;;;;;;;1.13;0.82;;;13.90;99.90;;;;;;4839139;29;20511;-76
2023/01/02 13:17:04;;;;;;;5.45;1.30;;;14.00;99.90;;;;;;4853503;23;20058;-80
2023/01/02 13:19:47;;;;;;;2.23;0.80;;;14.10;99.90;;;;;;4820422;29;20215;-78
2023/01/02 13:22:45;;;;;;;1.23;0.93;;;14.10;99.90;;;;;;4821884;29;20110;-78
2023/01/02 13:25:15;;;;;;;6.75;1.73;;;14.20;99.90;;;;;;4820725;29;20034;-80
2023/01/02 13:27:43;;;;;;;3.83;1.17;;;14.20;99.90;;;;;;4821886;29;20038;-80
2023/01/02 13:30:30;;;;;;;3.33;0.90;;;14.20;99.90;;;;;;4820802;29;20039;-78
2023/01/02 13:32:56;;;;;;;0.98;0.52;;;14.20;99.90;;;;;;4822229;29;20532;-83